sensor_id;sensor_type;location;lat;lon;timestamp;temperature;humidity
44277;DHT22;29973;43.742;1.236;2023-04-22T00:01:51;13.80;99.90
44277;DHT22;29973;43.742;1.236;2023-04-22T00:04:17;13.70;99.90
44277;DHT22;29973;43.742;1.236;2023-04-22T00:06:42;13.70;99.90
44277;DHT22;29973;43.742;1.236;2023-04-22T00:09:09;13.70;99.90
44277;DHT22;29973;43.742;1.236;2023-04-22T00:11:35;13.90;99.90
44277;DHT22;29973;43.742;1.236;2023-04-22T00:14:01;14.00;99.90
44277;DHT22;29973;43.742;1.236;2023-04-22T00:16:26;14.10;99.90
44277;DHT22;29973;43.742;1.236;2023-04-22T00:18:52;14.00;99.90
44277;DHT22;29973;43.742;1.236;2023-04-22T00:21:18;14.10;99.90
44277;DHT22;29973;43.742;1.236;2023-04-22T00:23:43;14.10;99.90
44277;DHT22;29973;43.742;1.236;2023-04-22T00:26:10;14.10;99.90
44277;DHT22;29973;43.742;1.236;2023-04-22T00:28:36;14.00;99.90
44277;DHT22;29973;43.742;1.236;2023-04-22T00:31:01;14.20;99.90
44277;DHT22;29973;43.742;1.236;2023-04-22T00:33:29;14.40;99.90
44277;DHT22;29973;43.742;1.236;2023-04-22T00:35:55;14.50;99.90
44277;DHT22;29973;43.742;1.236;2023-04-22T00:38:21;14.50;99.90
44277;DHT22;29973;43.742;1.236;2023-04-22T00:40:46;14.50;99.90
44277;DHT22;29973;43.742;1.236;2023-04-22T00:43:12;14.50;99.90
44277;DHT22;29973;43.742;1.236;2023-04-22T00:45:38;14.50;99.90
44277;DHT22;29973;43.742;1.236;2023-04-22T00:48:04;14.50;99.90
44277;DHT22;29973;43.742;1.236;2023-04-22T00:50:30;14.50;99.90
44277;DHT22;29973;43.742;1.236;2023-04-22T00:52:56;14.60;99.90
44277;DHT22;29973;43.742;1.236;2023-04-22T00:55:21;14.60;99.90
44277;DHT22;29973;43.742;1.236;2023-04-22T00:57:48;14.50;99.90
44277;DHT22;29973;43.742;1.236;2023-04-22T01:00:15;14.40;99.90
44277;DHT22;29973;43.742;1.236;2023-04-22T01:02:41;14.40;99.90
44277;DHT22;29973;43.742;1.236;2023-04-22T01:05:07;14.20;99.90
44277;DHT22;29973;43.742;1.236;2023-04-22T01:07:35;14.10;99.90
44277;DHT22;29973;43.742;1.236;2023-04-22T01:10:02;13.90;99.90
44277;DHT22;29973;43.742;1.236;2023-04-22T01:12:28;13.80;99.90
44277;DHT22;29973;43.742;1.236;2023-04-22T01:14:54;13.90;99.90
44277;DHT22;29973;43.742;1.236;2023-04-22T01:17:20;13.70;99.90
44277;DHT22;29973;43.742;1.236;2023-04-22T01:19:47;13.50;99.90
44277;DHT22;29973;43.742;1.236;2023-04-22T01:22:13;13.40;99.90
44277;DHT22;29973;43.742;1.236;2023-04-22T01:24:39;13.30;99.90
44277;DHT22;29973;43.742;1.236;2023-04-22T01:27:05;13.10;99.90
44277;DHT22;29973;43.742;1.236;2023-04-22T01:29:32;13.10;99.90
44277;DHT22;29973;43.742;1.236;2023-04-22T01:31:57;13.00;99.90
44277;DHT22;29973;43.742;1.236;2023-04-22T01:34:23;13.10;99.90
44277;DHT22;29973;43.742;1.236;2023-04-22T01:36:49;13.00;99.90
44277;DHT22;29973;43.742;1.236;2023-04-22T01:39:16;13.00;99.90
44277;DHT22;29973;43.742;1.236;2023-04-22T01:41:42;13.00;99.90
44277;DHT22;29973;43.742;1.236;2023-04-22T01:44:08;13.00;99.90
44277;DHT22;29973;43.742;1.236;2023-04-22T01:46:33;12.90;99.90
44277;DHT22;29973;43.742;1.236;2023-04-22T01:48:59;12.90;99.90
44277;DHT22;29973;43.742;1.236;2023-04-22T01:51:25;12.70;99.90
44277;DHT22;29973;43.742;1.236;2023-04-22T01:53:50;12.70;99.90
44277;DHT22;29973;43.742;1.236;2023-04-22T01:56:16;12.60;99.90
44277;DHT22;29973;43.742;1.236;2023-04-22T01:58:42;12.50;99.90
44277;DHT22;29973;43.742;1.236;2023-04-22T02:01:09;12.30;99.90
44277;DHT22;29973;43.742;1.236;2023-04-22T02:03:35;12.20;99.90
44277;DHT22;29973;43.742;1.236;2023-04-22T02:06:01;12.40;99.90
44277;DHT22;29973;43.742;1.236;2023-04-22T02:08:27;12.40;99.90
44277;DHT22;29973;43.742;1.236;2023-04-22T02:10:53;12.30;99.90
44277;DHT22;29973;43.742;1.236;2023-04-22T02:13:18;12.10;99.90
44277;DHT22;29973;43.742;1.236;2023-04-22T02:15:44;11.90;99.90
44277;DHT22;29973;43.742;1.236;2023-04-22T02:18:10;11.80;99.90
44277;DHT22;29973;43.742;1.236;2023-04-22T02:20:36;11.70;99.90
44277;DHT22;29973;43.742;1.236;2023-04-22T02:23:02;11.70;99.90
44277;DHT22;29973;43.742;1.236;2023-04-22T02:25:28;11.90;99.90
44277;DHT22;29973;43.742;1.236;2023-04-22T02:27:54;11.90;99.90
44277;DHT22;29973;43.742;1.236;2023-04-22T02:30:20;11.80;99.90
44277;DHT22;29973;43.742;1.236;2023-04-22T02:32:46;11.70;99.90
44277;DHT22;29973;43.742;1.236;2023-04-22T02:35:12;11.70;99.90
44277;DHT22;29973;43.742;1.236;2023-04-22T02:37:38;11.90;99.90
44277;DHT22;29973;43.742;1.236;2023-04-22T02:40:04;11.90;99.90
44277;DHT22;29973;43.742;1.236;2023-04-22T02:42:31;11.70;99.90
44277;DHT22;29973;43.742;1.236;2023-04-22T02:44:57;11.60;99.90
44277;DHT22;29973;43.742;1.236;2023-04-22T02:47:23;11.50;99.90
44277;DHT22;29973;43.742;1.236;2023-04-22T02:49:48;11.50;99.90
44277;DHT22;29973;43.742;1.236;2023-04-22T02:52:14;11.60;99.90
44277;DHT22;29973;43.742;1.236;2023-04-22T02:54:40;11.60;99.90
44277;DHT22;29973;43.742;1.236;2023-04-22T02:57:05;11.80;99.90
44277;DHT22;29973;43.742;1.236;2023-04-22T02:59:33;11.60;99.90
44277;DHT22;29973;43.742;1.236;2023-04-22T03:01:58;11.60;99.90
44277;DHT22;29973;43.742;1.236;2023-04-22T03:04:24;11.60;99.90
44277;DHT22;29973;43.742;1.236;2023-04-22T03:06:50;11.60;99.90
44277;DHT22;29973;43.742;1.236;2023-04-22T03:09:16;11.50;99.90
44277;DHT22;29973;43.742;1.236;2023-04-22T03:11:42;11.50;99.90
44277;DHT22;29973;43.742;1.236;2023-04-22T03:14:08;11.50;99.90
44277;DHT22;29973;43.742;1.236;2023-04-22T03:16:34;11.50;99.90
44277;DHT22;29973;43.742;1.236;2023-04-22T03:19:00;11.60;99.90
44277;DHT22;29973;43.742;1.236;2023-04-22T03:21:25;11.60;99.90
44277;DHT22;29973;43.742;1.236;2023-04-22T03:23:52;11.50;99.90
44277;DHT22;29973;43.742;1.236;2023-04-22T03:26:18;11.50;99.90
44277;DHT22;29973;43.742;1.236;2023-04-22T03:28:44;11.60;99.90
44277;DHT22;29973;43.742;1.236;2023-04-22T03:31:10;11.70;99.90
44277;DHT22;29973;43.742;1.236;2023-04-22T03:33:36;11.60;99.90
44277;DHT22;29973;43.742;1.236;2023-04-22T03:36:01;11.60;99.90
44277;DHT22;29973;43.742;1.236;2023-04-22T03:38:27;11.70;99.90
44277;DHT22;29973;43.742;1.236;2023-04-22T03:40:53;11.90;99.90
44277;DHT22;29973;43.742;1.236;2023-04-22T03:43:18;12.00;99.90
44277;DHT22;29973;43.742;1.236;2023-04-22T03:45:44;12.40;99.90
44277;DHT22;29973;43.742;1.236;2023-04-22T03:48:10;12.60;99.90
44277;DHT22;29973;43.742;1.236;2023-04-22T03:50:35;12.70;99.90
44277;DHT22;29973;43.742;1.236;2023-04-22T03:53:01;12.90;99.90
44277;DHT22;29973;43.742;1.236;2023-04-22T03:55:27;12.90;99.90
44277;DHT22;29973;43.742;1.236;2023-04-22T03:57:52;12.80;99.90
44277;DHT22;29973;43.742;1.236;2023-04-22T04:00:18;12.70;99.90
44277;DHT22;29973;43.742;1.236;2023-04-22T04:02:44;12.80;99.90
44277;DHT22;29973;43.742;1.236;2023-04-22T04:05:10;12.90;99.90
44277;DHT22;29973;43.742;1.236;2023-04-22T04:07:36;12.80;99.90
44277;DHT22;29973;43.742;1.236;2023-04-22T04:10:02;12.70;99.90
44277;DHT22;29973;43.742;1.236;2023-04-22T04:12:28;12.70;99.90
44277;DHT22;29973;43.742;1.236;2023-04-22T04:14:54;12.70;99.90
44277;DHT22;29973;43.742;1.236;2023-04-22T04:17:20;12.70;99.90
44277;DHT22;29973;43.742;1.236;2023-04-22T04:19:53;12.70;99.90
44277;DHT22;29973;43.742;1.236;2023-04-22T04:22:18;12.70;99.90
44277;DHT22;29973;43.742;1.236;2023-04-22T04:24:44;12.70;99.90
44277;DHT22;29973;43.742;1.236;2023-04-22T04:27:12;12.60;99.90
44277;DHT22;29973;43.742;1.236;2023-04-22T04:29:38;12.70;99.90
44277;DHT22;29973;43.742;1.236;2023-04-22T04:32:08;12.90;99.90
44277;DHT22;29973;43.742;1.236;2023-04-22T04:34:34;13.00;99.90
44277;DHT22;29973;43.742;1.236;2023-04-22T04:37:02;13.00;99.90
44277;DHT22;29973;43.742;1.236;2023-04-22T04:39:28;13.20;99.90
44277;DHT22;29973;43.742;1.236;2023-04-22T04:41:54;13.20;99.90
44277;DHT22;29973;43.742;1.236;2023-04-22T04:44:20;13.30;99.90
44277;DHT22;29973;43.742;1.236;2023-04-22T04:46:47;13.30;99.90
44277;DHT22;29973;43.742;1.236;2023-04-22T04:49:13;13.40;99.90
44277;DHT22;29973;43.742;1.236;2023-04-22T04:51:38;13.40;99.90
44277;DHT22;29973;43.742;1.236;2023-04-22T04:54:04;13.40;99.90
44277;DHT22;29973;43.742;1.236;2023-04-22T04:56:30;13.40;99.90
44277;DHT22;29973;43.742;1.236;2023-04-22T04:58:56;13.40;99.90
44277;DHT22;29973;43.742;1.236;2023-04-22T05:01:22;13.30;99.90
44277;DHT22;29973;43.742;1.236;2023-04-22T05:03:47;13.30;99.90
44277;DHT22;29973;43.742;1.236;2023-04-22T05:06:13;13.30;99.90
44277;DHT22;29973;43.742;1.236;2023-04-22T05:08:39;13.30;99.90
44277;DHT22;29973;43.742;1.236;2023-04-22T05:11:05;13.30;99.90
44277;DHT22;29973;43.742;1.236;2023-04-22T05:13:30;13.30;99.90
44277;DHT22;29973;43.742;1.236;2023-04-22T05:15:56;13.30;99.90
44277;DHT22;29973;43.742;1.236;2023-04-22T05:18:22;13.40;99.90
44277;DHT22;29973;43.742;1.236;2023-04-22T05:20:48;13.40;99.90
44277;DHT22;29973;43.742;1.236;2023-04-22T05:23:13;13.40;99.90
44277;DHT22;29973;43.742;1.236;2023-04-22T05:25:39;13.40;99.90
44277;DHT22;29973;43.742;1.236;2023-04-22T05:28:05;13.50;99.90
44277;DHT22;29973;43.742;1.236;2023-04-22T05:30:31;13.50;99.90
44277;DHT22;29973;43.742;1.236;2023-04-22T05:32:56;13.50;99.90
44277;DHT22;29973;43.742;1.236;2023-04-22T05:35:22;13.50;99.90
44277;DHT22;29973;43.742;1.236;2023-04-22T05:37:48;13.50;99.90
44277;DHT22;29973;43.742;1.236;2023-04-22T05:40:13;13.50;99.90
44277;DHT22;29973;43.742;1.236;2023-04-22T05:42:39;13.50;99.90
44277;DHT22;29973;43.742;1.236;2023-04-22T05:45:05;13.60;99.90
44277;DHT22;29973;43.742;1.236;2023-04-22T05:47:31;13.60;99.90
44277;DHT22;29973;43.742;1.236;2023-04-22T05:49:57;13.60;99.90
44277;DHT22;29973;43.742;1.236;2023-04-22T05:52:23;13.60;99.90
44277;DHT22;29973;43.742;1.236;2023-04-22T05:54:48;13.60;99.90
44277;DHT22;29973;43.742;1.236;2023-04-22T05:57:15;13.70;99.90
44277;DHT22;29973;43.742;1.236;2023-04-22T05:59:41;13.70;99.90
44277;DHT22;29973;43.742;1.236;2023-04-22T06:02:06;13.70;99.90
44277;DHT22;29973;43.742;1.236;2023-04-22T06:04:32;13.90;99.90
44277;DHT22;29973;43.742;1.236;2023-04-22T06:06:58;13.80;99.90
44277;DHT22;29973;43.742;1.236;2023-04-22T06:09:24;13.80;99.90
44277;DHT22;29973;43.742;1.236;2023-04-22T06:11:50;13.80;99.90
44277;DHT22;29973;43.742;1.236;2023-04-22T06:14:15;13.90;99.90
44277;DHT22;29973;43.742;1.236;2023-04-22T06:16:41;13.90;99.90
44277;DHT22;29973;43.742;1.236;2023-04-22T06:19:07;13.90;99.90
44277;DHT22;29973;43.742;1.236;2023-04-22T06:21:32;13.90;99.90
44277;DHT22;29973;43.742;1.236;2023-04-22T06:24:02;14.00;99.90
44277;DHT22;29973;43.742;1.236;2023-04-22T06:26:29;14.00;99.90
44277;DHT22;29973;43.742;1.236;2023-04-22T06:28:55;14.00;99.90
44277;DHT22;29973;43.742;1.236;2023-04-22T06:31:21;14.00;99.90
44277;DHT22;29973;43.742;1.236;2023-04-22T06:33:47;14.00;99.90
44277;DHT22;29973;43.742;1.236;2023-04-22T06:36:13;14.00;99.90
44277;DHT22;29973;43.742;1.236;2023-04-22T06:38:38;14.00;99.90
44277;DHT22;29973;43.742;1.236;2023-04-22T06:41:04;14.00;99.90
44277;DHT22;29973;43.742;1.236;2023-04-22T06:43:30;14.00;99.90
44277;DHT22;29973;43.742;1.236;2023-04-22T06:45:56;14.00;99.90
44277;DHT22;29973;43.742;1.236;2023-04-22T06:48:22;14.00;99.90
44277;DHT22;29973;43.742;1.236;2023-04-22T06:50:48;14.00;99.90
44277;DHT22;29973;43.742;1.236;2023-04-22T06:53:14;14.10;99.90
44277;DHT22;29973;43.742;1.236;2023-04-22T06:55:40;14.10;99.90
44277;DHT22;29973;43.742;1.236;2023-04-22T06:58:05;14.10;99.90
44277;DHT22;29973;43.742;1.236;2023-04-22T07:00:31;14.10;99.90
44277;DHT22;29973;43.742;1.236;2023-04-22T07:02:57;14.10;99.90
44277;DHT22;29973;43.742;1.236;2023-04-22T07:05:23;14.00;99.90
44277;DHT22;29973;43.742;1.236;2023-04-22T07:07:49;14.10;99.90
44277;DHT22;29973;43.742;1.236;2023-04-22T07:10:14;14.30;99.90
44277;DHT22;29973;43.742;1.236;2023-04-22T07:12:48;14.30;99.90
44277;DHT22;29973;43.742;1.236;2023-04-22T07:15:13;14.50;99.90
44277;DHT22;29973;43.742;1.236;2023-04-22T07:17:39;14.40;99.90
44277;DHT22;29973;43.742;1.236;2023-04-22T07:20:05;14.40;99.90
44277;DHT22;29973;43.742;1.236;2023-04-22T07:22:31;14.50;99.90
44277;DHT22;29973;43.742;1.236;2023-04-22T07:24:57;14.60;99.90
44277;DHT22;29973;43.742;1.236;2023-04-22T07:27:23;14.70;99.90
44277;DHT22;29973;43.742;1.236;2023-04-22T07:29:48;14.60;99.90
44277;DHT22;29973;43.742;1.236;2023-04-22T07:32:14;14.80;99.90
44277;DHT22;29973;43.742;1.236;2023-04-22T07:34:40;14.90;99.90
44277;DHT22;29973;43.742;1.236;2023-04-22T07:37:06;14.70;99.90
44277;DHT22;29973;43.742;1.236;2023-04-22T07:39:33;14.60;99.90
44277;DHT22;29973;43.742;1.236;2023-04-22T07:41:59;14.80;99.90
44277;DHT22;29973;43.742;1.236;2023-04-22T07:44:25;14.70;99.90
44277;DHT22;29973;43.742;1.236;2023-04-22T07:46:50;14.50;99.90
44277;DHT22;29973;43.742;1.236;2023-04-22T07:49:16;14.40;99.90
44277;DHT22;29973;43.742;1.236;2023-04-22T07:51:45;14.40;99.90
44277;DHT22;29973;43.742;1.236;2023-04-22T07:54:11;14.50;99.90
44277;DHT22;29973;43.742;1.236;2023-04-22T07:56:37;14.60;99.90
44277;DHT22;29973;43.742;1.236;2023-04-22T07:59:03;14.70;99.90
44277;DHT22;29973;43.742;1.236;2023-04-22T08:01:29;14.70;99.90
44277;DHT22;29973;43.742;1.236;2023-04-22T08:03:55;14.90;99.90
44277;DHT22;29973;43.742;1.236;2023-04-22T08:06:21;15.10;99.90
44277;DHT22;29973;43.742;1.236;2023-04-22T08:08:46;15.50;99.90
44277;DHT22;29973;43.742;1.236;2023-04-22T08:11:12;15.60;99.90
44277;DHT22;29973;43.742;1.236;2023-04-22T08:13:38;15.60;99.90
44277;DHT22;29973;43.742;1.236;2023-04-22T08:16:03;15.30;99.90
44277;DHT22;29973;43.742;1.236;2023-04-22T08:18:31;15.80;99.90
44277;DHT22;29973;43.742;1.236;2023-04-22T08:20:56;16.10;99.90
44277;DHT22;29973;43.742;1.236;2023-04-22T08:23:22;16.10;99.90
44277;DHT22;29973;43.742;1.236;2023-04-22T08:25:48;15.40;99.90
44277;DHT22;29973;43.742;1.236;2023-04-22T08:28:14;15.60;99.90
44277;DHT22;29973;43.742;1.236;2023-04-22T08:30:40;15.60;99.90
44277;DHT22;29973;43.742;1.236;2023-04-22T08:33:06;15.20;99.90
44277;DHT22;29973;43.742;1.236;2023-04-22T08:35:34;15.80;99.90
44277;DHT22;29973;43.742;1.236;2023-04-22T08:38:00;15.70;99.90
44277;DHT22;29973;43.742;1.236;2023-04-22T08:40:26;16.00;99.90
44277;DHT22;29973;43.742;1.236;2023-04-22T08:42:53;16.00;99.90
44277;DHT22;29973;43.742;1.236;2023-04-22T08:45:20;16.20;99.90
44277;DHT22;29973;43.742;1.236;2023-04-22T08:47:48;15.80;99.90
44277;DHT22;29973;43.742;1.236;2023-04-22T08:50:14;15.40;99.90
44277;DHT22;29973;43.742;1.236;2023-04-22T08:52:43;15.00;99.90
44277;DHT22;29973;43.742;1.236;2023-04-22T08:55:09;15.10;99.90
44277;DHT22;29973;43.742;1.236;2023-04-22T08:57:40;15.20;99.90
44277;DHT22;29973;43.742;1.236;2023-04-22T09:00:07;15.30;99.90
44277;DHT22;29973;43.742;1.236;2023-04-22T09:02:35;15.50;99.90
44277;DHT22;29973;43.742;1.236;2023-04-22T09:05:02;15.40;99.90
44277;DHT22;29973;43.742;1.236;2023-04-22T09:07:31;15.30;99.90
44277;DHT22;29973;43.742;1.236;2023-04-22T09:09:57;15.70;99.90
44277;DHT22;29973;43.742;1.236;2023-04-22T09:12:26;16.30;99.90
44277;DHT22;29973;43.742;1.236;2023-04-22T09:14:53;16.00;99.90
44277;DHT22;29973;43.742;1.236;2023-04-22T09:17:33;16.40;99.90
44277;DHT22;29973;43.742;1.236;2023-04-22T09:20:00;16.60;99.90
44277;DHT22;29973;43.742;1.236;2023-04-22T09:22:28;16.40;99.90
44277;DHT22;29973;43.742;1.236;2023-04-22T09:25:03;16.30;99.90
44277;DHT22;29973;43.742;1.236;2023-04-22T09:27:29;15.60;99.90
44277;DHT22;29973;43.742;1.236;2023-04-22T09:29:55;15.30;99.90
44277;DHT22;29973;43.742;1.236;2023-04-22T09:32:23;15.30;99.90
44277;DHT22;29973;43.742;1.236;2023-04-22T09:34:53;15.60;99.90
44277;DHT22;29973;43.742;1.236;2023-04-22T09:37:25;16.10;99.90
44277;DHT22;29973;43.742;1.236;2023-04-22T09:39:52;16.20;99.90
44277;DHT22;29973;43.742;1.236;2023-04-22T09:42:18;16.80;99.90
44277;DHT22;29973;43.742;1.236;2023-04-22T09:44:48;16.80;99.90
44277;DHT22;29973;43.742;1.236;2023-04-22T09:47:17;17.10;99.90
44277;DHT22;29973;43.742;1.236;2023-04-22T09:49:47;16.40;99.90
44277;DHT22;29973;43.742;1.236;2023-04-22T09:52:24;16.30;99.90
44277;DHT22;29973;43.742;1.236;2023-04-22T09:54:52;16.40;99.90
44277;DHT22;29973;43.742;1.236;2023-04-22T09:57:22;15.90;99.90
44277;DHT22;29973;43.742;1.236;2023-04-22T09:59:51;16.10;99.90
44277;DHT22;29973;43.742;1.236;2023-04-22T10:02:17;16.20;99.90
44277;DHT22;29973;43.742;1.236;2023-04-22T10:04:43;16.00;99.90
44277;DHT22;29973;43.742;1.236;2023-04-22T10:07:09;15.90;99.90
44277;DHT22;29973;43.742;1.236;2023-04-22T10:09:35;15.90;99.90
44277;DHT22;29973;43.742;1.236;2023-04-22T10:12:01;15.90;99.90
44277;DHT22;29973;43.742;1.236;2023-04-22T10:14:27;15.80;99.90
44277;DHT22;29973;43.742;1.236;2023-04-22T10:17:00;16.30;99.90
44277;DHT22;29973;43.742;1.236;2023-04-22T10:19:28;17.00;99.90
44277;DHT22;29973;43.742;1.236;2023-04-22T10:21:59;17.00;99.90
44277;DHT22;29973;43.742;1.236;2023-04-22T10:24:26;16.80;99.90
44277;DHT22;29973;43.742;1.236;2023-04-22T10:27:03;16.50;99.90
44277;DHT22;29973;43.742;1.236;2023-04-22T10:29:39;16.10;99.90
44277;DHT22;29973;43.742;1.236;2023-04-22T10:32:22;16.10;99.90
44277;DHT22;29973;43.742;1.236;2023-04-22T10:35:09;16.20;99.90
44277;DHT22;29973;43.742;1.236;2023-04-22T10:37:36;16.00;99.90
44277;DHT22;29973;43.742;1.236;2023-04-22T10:40:07;15.80;99.90
44277;DHT22;29973;43.742;1.236;2023-04-22T10:42:34;16.10;99.90
44277;DHT22;29973;43.742;1.236;2023-04-22T10:45:02;16.30;99.90
44277;DHT22;29973;43.742;1.236;2023-04-22T10:47:33;16.80;99.90
44277;DHT22;29973;43.742;1.236;2023-04-22T10:50:15;16.60;99.90
44277;DHT22;29973;43.742;1.236;2023-04-22T10:52:42;16.40;99.90
44277;DHT22;29973;43.742;1.236;2023-04-22T10:55:08;16.40;99.90
44277;DHT22;29973;43.742;1.236;2023-04-22T10:57:42;16.20;99.90
44277;DHT22;29973;43.742;1.236;2023-04-22T11:00:26;16.10;99.90
44277;DHT22;29973;43.742;1.236;2023-04-22T11:05:24;16.20;99.90
44277;DHT22;29973;43.742;1.236;2023-04-22T11:07:55;16.40;99.90
44277;DHT22;29973;43.742;1.236;2023-04-22T11:12:56;16.40;99.90
44277;DHT22;29973;43.742;1.236;2023-04-22T11:15:22;16.40;99.90
44277;DHT22;29973;43.742;1.236;2023-04-22T11:17:52;16.60;99.90
44277;DHT22;29973;43.742;1.236;2023-04-22T11:20:19;16.70;99.90
44277;DHT22;29973;43.742;1.236;2023-04-22T11:22:46;16.70;99.90
44277;DHT22;29973;43.742;1.236;2023-04-22T11:25:12;16.40;99.90
44277;DHT22;29973;43.742;1.236;2023-04-22T11:27:40;16.40;99.90
44277;DHT22;29973;43.742;1.236;2023-04-22T11:30:13;15.90;99.90
44277;DHT22;29973;43.742;1.236;2023-04-22T11:32:44;15.90;99.90
44277;DHT22;29973;43.742;1.236;2023-04-22T11:35:25;15.90;99.90
44277;DHT22;29973;43.742;1.236;2023-04-22T11:37:55;15.90;99.90
44277;DHT22;29973;43.742;1.236;2023-04-22T11:40:40;15.90;99.90
44277;DHT22;29973;43.742;1.236;2023-04-22T11:43:07;15.90;99.90
44277;DHT22;29973;43.742;1.236;2023-04-22T11:45:35;15.90;99.90
44277;DHT22;29973;43.742;1.236;2023-04-22T11:48:03;15.70;99.90
44277;DHT22;29973;43.742;1.236;2023-04-22T11:50:35;15.60;99.90
44277;DHT22;29973;43.742;1.236;2023-04-22T11:53:03;15.60;99.90
44277;DHT22;29973;43.742;1.236;2023-04-22T11:55:30;15.60;99.90
44277;DHT22;29973;43.742;1.236;2023-04-22T11:58:09;15.60;99.90
44277;DHT22;29973;43.742;1.236;2023-04-22T12:00:41;15.60;99.90
44277;DHT22;29973;43.742;1.236;2023-04-22T12:03:18;15.50;99.90
44277;DHT22;29973;43.742;1.236;2023-04-22T12:05:49;15.30;99.90
44277;DHT22;29973;43.742;1.236;2023-04-22T12:08:21;15.30;99.90
44277;DHT22;29973;43.742;1.236;2023-04-22T12:15:47;15.50;99.90
44277;DHT22;29973;43.742;1.236;2023-04-22T12:18:13;15.50;99.90
44277;DHT22;29973;43.742;1.236;2023-04-22T12:20:40;15.60;99.90
44277;DHT22;29973;43.742;1.236;2023-04-22T12:23:13;15.70;99.90
44277;DHT22;29973;43.742;1.236;2023-04-22T12:25:40;15.60;99.90
44277;DHT22;29973;43.742;1.236;2023-04-22T12:28:06;15.70;99.90
44277;DHT22;29973;43.742;1.236;2023-04-22T12:30:31;15.50;99.90
44277;DHT22;29973;43.742;1.236;2023-04-22T12:32:57;15.50;99.90
44277;DHT22;29973;43.742;1.236;2023-04-22T12:35:23;15.50;99.90
44277;DHT22;29973;43.742;1.236;2023-04-22T12:37:49;15.50;99.90
44277;DHT22;29973;43.742;1.236;2023-04-22T12:40:14;15.30;99.90
44277;DHT22;29973;43.742;1.236;2023-04-22T12:42:40;15.40;99.90
44277;DHT22;29973;43.742;1.236;2023-04-22T12:45:06;15.40;99.90
44277;DHT22;29973;43.742;1.236;2023-04-22T12:47:33;15.40;99.90
44277;DHT22;29973;43.742;1.236;2023-04-22T12:49:59;15.50;99.90
44277;DHT22;29973;43.742;1.236;2023-04-22T12:52:25;15.50;99.90
44277;DHT22;29973;43.742;1.236;2023-04-22T12:54:51;15.50;99.90
44277;DHT22;29973;43.742;1.236;2023-04-22T12:57:17;15.50;99.90
44277;DHT22;29973;43.742;1.236;2023-04-22T12:59:43;15.20;99.90
44277;DHT22;29973;43.742;1.236;2023-04-22T13:02:11;15.20;99.90
44277;DHT22;29973;43.742;1.236;2023-04-22T13:04:37;14.80;99.90
44277;DHT22;29973;43.742;1.236;2023-04-22T13:07:03;14.40;99.90
44277;DHT22;29973;43.742;1.236;2023-04-22T13:09:28;14.40;99.90
44277;DHT22;29973;43.742;1.236;2023-04-22T13:11:54;14.30;99.90
44277;DHT22;29973;43.742;1.236;2023-04-22T13:14:20;14.50;99.90
44277;DHT22;29973;43.742;1.236;2023-04-22T13:16:45;14.20;99.90
44277;DHT22;29973;43.742;1.236;2023-04-22T13:19:11;14.00;99.90
44277;DHT22;29973;43.742;1.236;2023-04-22T13:21:37;13.90;99.90
44277;DHT22;29973;43.742;1.236;2023-04-22T13:24:03;13.70;99.90
44277;DHT22;29973;43.742;1.236;2023-04-22T13:26:29;13.60;99.90
44277;DHT22;29973;43.742;1.236;2023-04-22T13:28:54;13.70;99.90
44277;DHT22;29973;43.742;1.236;2023-04-22T13:31:20;13.80;99.90
44277;DHT22;29973;43.742;1.236;2023-04-22T13:33:46;14.00;99.90
44277;DHT22;29973;43.742;1.236;2023-04-22T13:36:12;14.30;99.90
44277;DHT22;29973;43.742;1.236;2023-04-22T13:38:38;15.10;99.90
44277;DHT22;29973;43.742;1.236;2023-04-22T13:41:03;15.50;99.90
44277;DHT22;29973;43.742;1.236;2023-04-22T13:43:29;15.50;99.90
44277;DHT22;29973;43.742;1.236;2023-04-22T13:45:55;15.50;99.90
44277;DHT22;29973;43.742;1.236;2023-04-22T13:48:21;15.60;99.90
44277;DHT22;29973;43.742;1.236;2023-04-22T13:50:46;15.70;99.90
44277;DHT22;29973;43.742;1.236;2023-04-22T13:53:12;15.80;99.90
44277;DHT22;29973;43.742;1.236;2023-04-22T13:55:38;15.90;99.90
44277;DHT22;29973;43.742;1.236;2023-04-22T13:58:04;15.70;99.90
44277;DHT22;29973;43.742;1.236;2023-04-22T14:00:32;15.70;99.90
44277;DHT22;29973;43.742;1.236;2023-04-22T14:02:57;15.60;99.90
44277;DHT22;29973;43.742;1.236;2023-04-22T14:05:23;15.30;99.90
44277;DHT22;29973;43.742;1.236;2023-04-22T14:07:49;15.20;99.90
44277;DHT22;29973;43.742;1.236;2023-04-22T14:10:15;15.20;99.90
44277;DHT22;29973;43.742;1.236;2023-04-22T14:12:45;14.70;99.90
44277;DHT22;29973;43.742;1.236;2023-04-22T14:15:10;14.80;99.90
44277;DHT22;29973;43.742;1.236;2023-04-22T14:17:37;14.90;99.90
44277;DHT22;29973;43.742;1.236;2023-04-22T14:20:03;14.80;99.90
44277;DHT22;29973;43.742;1.236;2023-04-22T14:22:30;14.70;99.90
44277;DHT22;29973;43.742;1.236;2023-04-22T14:24:56;14.40;99.90
44277;DHT22;29973;43.742;1.236;2023-04-22T14:27:22;14.30;99.90
44277;DHT22;29973;43.742;1.236;2023-04-22T14:29:47;14.30;99.90
44277;DHT22;29973;43.742;1.236;2023-04-22T14:32:20;14.20;99.90
44277;DHT22;29973;43.742;1.236;2023-04-22T14:34:46;14.20;99.90
44277;DHT22;29973;43.742;1.236;2023-04-22T14:37:12;14.40;99.90
44277;DHT22;29973;43.742;1.236;2023-04-22T14:39:37;14.50;99.90
44277;DHT22;29973;43.742;1.236;2023-04-22T14:42:04;14.50;99.90
44277;DHT22;29973;43.742;1.236;2023-04-22T14:44:29;14.30;99.90
44277;DHT22;29973;43.742;1.236;2023-04-22T14:46:55;14.30;99.90
44277;DHT22;29973;43.742;1.236;2023-04-22T14:49:21;14.20;99.90
44277;DHT22;29973;43.742;1.236;2023-04-22T14:51:47;14.20;99.90
44277;DHT22;29973;43.742;1.236;2023-04-22T14:54:13;14.50;99.90
44277;DHT22;29973;43.742;1.236;2023-04-22T14:56:39;14.60;99.90
44277;DHT22;29973;43.742;1.236;2023-04-22T14:59:04;14.90;99.90
44277;DHT22;29973;43.742;1.236;2023-04-22T15:01:31;15.10;99.90
44277;DHT22;29973;43.742;1.236;2023-04-22T15:03:57;15.30;99.90
44277;DHT22;29973;43.742;1.236;2023-04-22T15:06:23;15.50;99.90
44277;DHT22;29973;43.742;1.236;2023-04-22T15:08:49;15.30;99.90
44277;DHT22;29973;43.742;1.236;2023-04-22T15:11:16;15.50;99.90
44277;DHT22;29973;43.742;1.236;2023-04-22T15:13:42;15.40;99.90
44277;DHT22;29973;43.742;1.236;2023-04-22T15:16:08;15.50;99.90
44277;DHT22;29973;43.742;1.236;2023-04-22T15:18:33;15.90;99.90
44277;DHT22;29973;43.742;1.236;2023-04-22T15:20:59;16.40;99.90
44277;DHT22;29973;43.742;1.236;2023-04-22T15:23:27;17.10;99.90
44277;DHT22;29973;43.742;1.236;2023-04-22T15:25:53;17.30;99.90
44277;DHT22;29973;43.742;1.236;2023-04-22T15:28:19;18.40;99.90
44277;DHT22;29973;43.742;1.236;2023-04-22T15:30:45;17.50;99.90
44277;DHT22;29973;43.742;1.236;2023-04-22T15:33:11;17.10;99.90
44277;DHT22;29973;43.742;1.236;2023-04-22T15:35:37;16.70;99.90
44277;DHT22;29973;43.742;1.236;2023-04-22T15:38:03;15.90;99.90